Time;durP1;ratioP1;P1;durP2;ratioP2;P2;SDS_P1;SDS_P2;PMS_P1;PMS_P2;Temp;Humidity;BMP_temperature;BMP_pressure;BME280_temperature;BME280_humidity;BME280_pressure;Samples;Min_cycle;Max_cycle;Signal;HPM_P1;HPM_P2
2023/06/26 00:02:19;;;;;;;6.47;4.20;;;;;;;;;;4925471;29;20500;-83
2023/06/26 00:04:45;;;;;;;5.55;3.47;;;;;;;;;;4950811;28;20036;-83
2023/06/26 00:07:10;;;;;;;6.75;3.67;;;;;;;;;;4926742;29;20063;-86
2023/06/26 00:09:36;;;;;;;6.57;3.88;;;;;;;;;;4935007;29;20035;-86
2023/06/26 00:12:02;;;;;;;9.40;4.40;;;;;;;;;;4918228;29;20067;-84
2023/06/26 00:14:27;;;;;;;6.63;4.07;;;;;;;;;;4934502;29;20035;-81
2023/06/26 00:16:53;;;;;;;6.97;4.50;;;;;;;;;;4934703;29;20039;-84
2023/06/26 00:19:18;;;;;;;6.05;4.00;;;;;;;;;;4918627;29;20419;-83
2023/06/26 00:21:47;;;;;;;8.55;4.05;;;;;;;;;;4933947;29;20047;-84
2023/06/26 00:24:16;;;;;;;6.32;4.03;;;;;;;;;;4918091;29;20498;-83
2023/06/26 00:26:41;;;;;;;5.50;3.50;;;;;;;;;;4934404;29;20046;-83
2023/06/26 00:29:07;;;;;;;8.02;4.28;;;;;;;;;;4933488;29;20028;-83
2023/06/26 00:31:34;;;;;;;9.93;4.47;;;;;;;;;;4949639;29;20056;-84
2023/06/26 00:34:01;;;;;;;6.25;3.88;;;;;;;;;;4935131;29;20071;-83
2023/06/26 00:36:27;;;;;;;5.78;4.20;;;;;;;;;;4935258;29;20042;-84
2023/06/26 00:38:52;;;;;;;8.20;4.03;;;;;;;;;;4902296;29;20107;-83
2023/06/26 00:41:18;;;;;;;6.70;3.97;;;;;;;;;;4949778;29;20567;-82
2023/06/26 00:43:44;;;;;;;7.32;4.07;;;;;;;;;;4951490;29;20035;-83
2023/06/26 00:46:11;;;;;;;7.32;4.00;;;;;;;;;;4921627;29;20403;-83
2023/06/26 00:48:41;;;;;;;7.43;3.80;;;;;;;;;;4938008;29;20094;-83
2023/06/26 00:51:07;;;;;;;5.50;3.60;;;;;;;;;;4954403;28;20028;-83
2023/06/26 00:53:33;;;;;;;5.95;3.97;;;;;;;;;;4954273;28;20411;-83
2023/06/26 00:55:59;;;;;;;6.50;3.63;;;;;;;;;;4952982;29;20398;-83
2023/06/26 00:58:25;;;;;;;5.68;4.03;;;;;;;;;;4952733;29;20094;-83
2023/06/26 01:00:51;;;;;;;6.00;4.00;;;;;;;;;;4921377;29;20039;-83
2023/06/26 01:03:22;;;;;;;6.10;4.13;;;;;;;;;;4937026;29;20051;-82
2023/06/26 01:05:49;;;;;;;6.18;4.40;;;;;;;;;;4919488;29;20035;-82
2023/06/26 01:08:16;;;;;;;;;;;;;;;;;;4917237;29;20032;-80
2023/06/26 01:10:44;;;;;;;5.72;3.92;;;;;;;;;;4952864;29;20041;-79
2023/06/26 01:13:09;;;;;;;5.75;3.75;;;;;;;;;;4952786;29;20008;-82
2023/06/26 01:15:35;;;;;;;6.68;3.80;;;;;;;;;;4968798;29;20012;-83
2023/06/26 01:18:03;;;;;;;6.45;4.35;;;;;;;;;;4937591;29;20046;-80
2023/06/26 01:20:36;;;;;;;8.07;3.60;;;;;;;;;;4942821;29;20032;-81
2023/06/26 01:23:20;;;;;;;6.40;4.03;;;;;;;;;;4925238;29;20039;-82
2023/06/26 01:25:59;;;;;;;5.10;3.67;;;;;;;;;;4941745;29;20036;-81
2023/06/26 01:28:26;;;;;;;5.53;3.63;;;;;;;;;;4955896;29;20023;-82
2023/06/26 01:30:52;;;;;;;7.20;4.10;;;;;;;;;;4945726;29;20031;-81
2023/06/26 01:33:17;;;;;;;7.28;3.95;;;;;;;;;;4971240;29;20043;-81
2023/06/26 01:35:43;;;;;;;7.78;4.22;;;;;;;;;;4975436;28;20042;-82
2023/06/26 01:38:16;;;;;;;6.63;4.30;;;;;;;;;;4981022;28;20082;-84
2023/06/26 01:40:43;;;;;;;6.40;3.83;;;;;;;;;;4961849;29;20110;-82
2023/06/26 01:43:29;;;;;;;9.10;4.65;;;;;;;;;;4978111;29;20046;-80
2023/06/26 01:45:57;;;;;;;9.07;4.97;;;;;;;;;;4961235;29;20058;-83
2023/06/26 01:48:25;;;;;;;7.57;4.45;;;;;;;;;;4957511;29;20036;-83
2023/06/26 01:50:52;;;;;;;7.38;4.28;;;;;;;;;;4955503;29;20042;-83
2023/06/26 01:53:19;;;;;;;5.88;4.07;;;;;;;;;;4956397;29;20042;-83
2023/06/26 01:55:48;;;;;;;7.90;4.22;;;;;;;;;;4957580;28;20167;-83
2023/06/26 01:58:16;;;;;;;6.35;4.20;;;;;;;;;;4940870;29;20046;-83
2023/06/26 02:00:43;;;;;;;8.10;4.25;;;;;;;;;;4940451;29;20027;-83
2023/06/26 02:03:09;;;;;;;7.15;4.18;;;;;;;;;;4956518;29;20031;-83
2023/06/26 02:05:34;;;;;;;6.35;4.25;;;;;;;;;;4957734;29;20506;-83
2023/06/26 02:08:02;;;;;;;7.50;4.45;;;;;;;;;;4923737;29;20039;-84
2023/06/26 02:10:29;;;;;;;6.57;4.20;;;;;;;;;;4938346;29;20034;-84
2023/06/26 02:12:55;;;;;;;8.60;4.40;;;;;;;;;;4939126;29;20031;-83
2023/06/26 02:15:21;;;;;;;10.82;4.78;;;;;;;;;;4939028;29;20488;-82
2023/06/26 02:17:48;;;;;;;7.30;4.47;;;;;;;;;;4940032;29;20495;-83
2023/06/26 02:20:16;;;;;;;7.63;4.40;;;;;;;;;;4937167;29;20024;-83
2023/06/26 02:22:43;;;;;;;8.10;4.10;;;;;;;;;;4943796;29;20039;-83
2023/06/26 02:25:09;;;;;;;6.75;3.97;;;;;;;;;;4957055;28;20081;-83
2023/06/26 02:27:34;;;;;;;7.22;3.80;;;;;;;;;;4955285;29;20076;-83
2023/06/26 02:30:00;;;;;;;6.70;4.60;;;;;;;;;;4939576;29;20062;-84
2023/06/26 02:32:25;;;;;;;7.22;4.63;;;;;;;;;;4956278;28;20455;-83
2023/06/26 02:34:54;;;;;;;8.20;4.57;;;;;;;;;;4956793;28;20031;-83
2023/06/26 02:37:20;;;;;;;6.78;4.63;;;;;;;;;;4955320;29;20027;-83
2023/06/26 02:39:46;;;;;;;11.00;6.50;;;;;;;;;;4935888;29;20035;-82
2023/06/26 02:42:12;;;;;;;8.40;5.25;;;;;;;;;;4936813;29;20479;-81
2023/06/26 02:44:37;;;;;;;9.68;5.13;;;;;;;;;;4920318;29;20054;-83
2023/06/26 02:47:03;;;;;;;9.35;5.80;;;;;;;;;;4919340;29;20035;-82
2023/06/26 02:49:29;;;;;;;6.35;4.43;;;;;;;;;;4935703;29;20028;-83
2023/06/26 02:51:54;;;;;;;9.43;4.82;;;;;;;;;;4936529;29;20027;-83
2023/06/26 02:54:25;;;;;;;9.10;5.00;;;;;;;;;;4935880;29;20027;-82
2023/06/26 02:56:53;;;;;;;7.70;4.90;;;;;;;;;;4935340;29;20106;-83
2023/06/26 02:59:24;;;;;;;7.97;4.90;;;;;;;;;;4935680;29;20042;-83
2023/06/26 03:01:51;;;;;;;8.70;4.47;;;;;;;;;;4951419;29;20036;-83
2023/06/26 03:04:17;;;;;;;7.03;4.65;;;;;;;;;;4951635;29;20038;-83
2023/06/26 03:06:43;;;;;;;9.20;5.18;;;;;;;;;;4951429;29;20060;-83
2023/06/26 03:09:09;;;;;;;8.57;4.47;;;;;;;;;;4951367;29;20024;-83
2023/06/26 03:11:35;;;;;;;7.07;4.30;;;;;;;;;;4953248;29;20032;-83
2023/06/26 03:14:01;;;;;;;9.90;5.35;;;;;;;;;;4954700;29;20450;-83
2023/06/26 03:16:26;;;;;;;11.02;5.30;;;;;;;;;;4954610;29;20038;-82
2023/06/26 03:18:52;;;;;;;8.02;4.57;;;;;;;;;;4954980;29;20491;-83
2023/06/26 03:21:17;;;;;;;10.77;4.93;;;;;;;;;;4938991;29;20058;-83
2023/06/26 03:23:43;;;;;;;7.40;4.85;;;;;;;;;;4939580;29;20407;-82
2023/06/26 03:26:09;;;;;;;9.02;4.20;;;;;;;;;;4955951;29;20135;-83
2023/06/26 03:28:36;;;;;;;9.23;4.60;;;;;;;;;;4954411;29;20035;-81
2023/06/26 03:31:02;;;;;;;6.47;4.22;;;;;;;;;;4938683;29;20483;-83
2023/06/26 03:33:27;;;;;;;8.18;4.65;;;;;;;;;;4956946;28;20059;-83
2023/06/26 03:35:54;;;;;;;8.02;4.40;;;;;;;;;;4956435;29;20078;-82
2023/06/26 03:38:21;;;;;;;10.27;4.60;;;;;;;;;;4941273;29;20039;-83
2023/06/26 03:40:47;;;;;;;8.82;4.60;;;;;;;;;;4957463;29;20035;-82
2023/06/26 03:43:12;;;;;;;8.23;4.93;;;;;;;;;;4956086;29;20027;-83
2023/06/26 03:45:52;;;;;;;6.65;4.50;;;;;;;;;;4940996;29;20118;-85
2023/06/26 03:48:18;;;;;;;10.32;4.88;;;;;;;;;;4939308;29;20526;-84
2023/06/26 03:50:45;;;;;;;6.82;4.30;;;;;;;;;;4954820;29;20371;-83
2023/06/26 03:53:11;;;;;;;6.10;4.32;;;;;;;;;;4939435;29;20191;-83
2023/06/26 03:55:39;;;;;;;8.05;4.90;;;;;;;;;;4955782;29;20083;-83
2023/06/26 03:58:05;;;;;;;11.93;6.90;;;;;;;;;;4955556;29;20039;-84
2023/06/26 04:00:31;;;;;;;9.10;5.35;;;;;;;;;;4955757;28;20059;-82
2023/06/26 04:02:57;;;;;;;9.02;4.57;;;;;;;;;;4955284;28;20069;-82
2023/06/26 04:05:22;;;;;;;9.57;4.80;;;;;;;;;;4955947;29;20126;-82
2023/06/26 04:07:50;;;;;;;9.38;5.40;;;;;;;;;;4939646;29;20106;-83
2023/06/26 04:10:16;;;;;;;6.30;4.30;;;;;;;;;;4939810;29;20035;-84
2023/06/26 04:12:41;;;;;;;7.05;4.85;;;;;;;;;;4958557;29;20034;-83
2023/06/26 04:15:07;;;;;;;8.23;4.28;;;;;;;;;;4951108;29;20505;-82
2023/06/26 04:17:33;;;;;;;8.95;4.65;;;;;;;;;;4972218;29;20039;-82
2023/06/26 04:19:58;;;;;;;9.07;4.10;;;;;;;;;;4967161;28;20039;-82
2023/06/26 04:22:25;;;;;;;5.47;4.05;;;;;;;;;;4964154;28;20042;-82
2023/06/26 04:24:51;;;;;;;8.95;4.85;;;;;;;;;;4963522;28;20110;-82
2023/06/26 04:27:17;;;;;;;7.13;4.47;;;;;;;;;;4962727;28;20035;-81
2023/06/26 04:29:43;;;;;;;8.25;4.35;;;;;;;;;;4962034;29;20105;-80
2023/06/26 04:32:09;;;;;;;10.80;6.80;;;;;;;;;;4957772;28;20039;-83
2023/06/26 04:34:36;;;;;;;8.57;4.35;;;;;;;;;;4954127;29;20031;-82
2023/06/26 04:37:03;;;;;;;6.10;4.32;;;;;;;;;;4954022;29;20038;-83
2023/06/26 04:39:30;;;;;;;8.23;4.75;;;;;;;;;;4953397;29;20058;-82
2023/06/26 04:41:55;;;;;;;7.70;4.90;;;;;;;;;;4953297;29;20023;-83
2023/06/26 04:44:21;;;;;;;9.27;4.85;;;;;;;;;;4954868;28;20041;-83
2023/06/26 04:46:46;;;;;;;7.90;4.38;;;;;;;;;;4937610;29;20078;-83
2023/06/26 04:49:11;;;;;;;6.95;4.57;;;;;;;;;;4954481;28;20093;-83
2023/06/26 04:51:40;;;;;;;10.32;5.15;;;;;;;;;;4952088;29;20034;-83
2023/06/26 04:54:06;;;;;;;;;;;;;;;;;;4953858;29;20035;-84
2023/06/26 04:56:31;;;;;;;10.00;4.03;;;;;;;;;;4954312;29;19958;-83
2023/06/26 04:58:57;;;;;;;9.93;4.25;;;;;;;;;;4954424;29;20049;-82
2023/06/26 05:01:22;;;;;;;8.55;4.45;;;;;;;;;;4952662;29;20073;-82
2023/06/26 05:03:48;;;;;;;8.50;4.80;;;;;;;;;;4953088;29;20479;-83
2023/06/26 05:06:13;;;;;;;6.10;4.25;;;;;;;;;;4953889;28;20106;-83
2023/06/26 05:08:39;;;;;;;7.40;4.53;;;;;;;;;;4952356;29;20091;-83
2023/06/26 05:11:04;;;;;;;8.80;4.05;;;;;;;;;;4953266;28;20031;-84
2023/06/26 05:13:30;;;;;;;6.60;4.35;;;;;;;;;;4952638;29;20039;-83
2023/06/26 05:15:55;;;;;;;7.70;4.05;;;;;;;;;;4953763;28;20027;-83
2023/06/26 05:18:21;;;;;;;8.90;4.78;;;;;;;;;;4952494;29;20171;-83
2023/06/26 05:20:48;;;;;;;7.22;4.40;;;;;;;;;;4954030;28;20042;-83
2023/06/26 05:23:15;;;;;;;7.15;4.45;;;;;;;;;;4949432;28;20031;-83
2023/06/26 05:25:41;;;;;;;7.22;4.72;;;;;;;;;;4935176;29;20054;-83
2023/06/26 05:28:10;;;;;;;10.00;4.30;;;;;;;;;;4935995;29;20560;-83
2023/06/26 05:30:35;;;;;;;;;;;;;;;;;;4918503;29;20111;-84
2023/06/26 05:33:02;;;;;;;7.90;4.45;;;;;;;;;;4933875;29;20346;-84
2023/06/26 05:35:28;;;;;;;6.93;4.38;;;;;;;;;;4934322;29;20079;-84
2023/06/26 05:37:54;;;;;;;7.85;4.30;;;;;;;;;;4934026;29;20508;-83
2023/06/26 05:40:19;;;;;;;6.40;4.63;;;;;;;;;;4923092;29;20038;-84
2023/06/26 05:42:45;;;;;;;7.18;4.75;;;;;;;;;;4936340;29;20399;-83
2023/06/26 05:45:11;;;;;;;6.47;4.53;;;;;;;;;;4955368;23;20147;-77
2023/06/26 05:47:37;;;;;;;7.22;4.97;;;;;;;;;;4951774;29;20045;-76
2023/06/26 05:50:03;;;;;;;9.05;5.22;;;;;;;;;;4951744;29;20558;-77
2023/06/26 05:52:29;;;;;;;7.25;4.97;;;;;;;;;;4952796;28;20031;-77
2023/06/26 05:54:59;;;;;;;10.50;5.15;;;;;;;;;;4950870;29;20047;-75
2023/06/26 05:57:28;;;;;;;6.90;4.40;;;;;;;;;;4953045;28;20086;-76
2023/06/26 05:59:54;;;;;;;8.40;4.97;;;;;;;;;;4952986;29;20031;-77
2023/06/26 06:02:19;;;;;;;9.27;5.30;;;;;;;;;;4952949;29;20550;-77
2023/06/26 06:04:45;;;;;;;7.72;5.22;;;;;;;;;;4951724;29;20053;-76
2023/06/26 06:07:11;;;;;;;9.77;4.95;;;;;;;;;;4935835;29;20183;-76
2023/06/26 06:09:37;;;;;;;11.30;5.22;;;;;;;;;;4933553;29;20107;-77
2023/06/26 06:12:04;;;;;;;8.38;5.22;;;;;;;;;;4917248;29;20336;-75
2023/06/26 06:14:30;;;;;;;12.98;5.20;;;;;;;;;;4917704;29;20047;-77
2023/06/26 06:16:56;;;;;;;17.17;5.30;;;;;;;;;;4933788;29;20376;-77
2023/06/26 06:19:22;;;;;;;8.18;4.95;;;;;;;;;;4902049;29;20527;-77
2023/06/26 06:21:48;;;;;;;10.15;5.10;;;;;;;;;;4932566;29;20042;-78
2023/06/26 06:24:14;;;;;;;13.82;5.18;;;;;;;;;;4935610;29;20036;-74
2023/06/26 06:26:40;;;;;;;7.97;4.68;;;;;;;;;;4947898;29;20397;-77
2023/06/26 06:29:06;;;;;;;8.05;5.13;;;;;;;;;;4955374;29;20105;-77
2023/06/26 06:31:32;;;;;;;13.27;5.10;;;;;;;;;;4939035;29;20031;-76
2023/06/26 06:33:57;;;;;;;7.45;4.88;;;;;;;;;;4939023;29;20397;-77
2023/06/26 06:36:23;;;;;;;11.18;5.50;;;;;;;;;;4923200;29;20446;-77
2023/06/26 06:38:49;;;;;;;7.03;4.78;;;;;;;;;;4923316;29;20031;-77
2023/06/26 06:41:16;;;;;;;9.43;4.93;;;;;;;;;;4955699;28;20390;-76
2023/06/26 06:43:42;;;;;;;8.25;5.07;;;;;;;;;;4954600;28;20082;-76
2023/06/26 06:46:08;;;;;;;7.35;5.22;;;;;;;;;;4955079;28;20035;-76
2023/06/26 06:48:37;;;;;;;9.52;5.30;;;;;;;;;;4951391;29;20035;-77
2023/06/26 06:51:03;;;;;;;7.50;5.40;;;;;;;;;;4919345;29;20583;-77
2023/06/26 06:53:29;;;;;;;7.38;4.80;;;;;;;;;;4936529;29;20107;-78
2023/06/26 06:55:54;;;;;;;8.13;5.00;;;;;;;;;;4951321;28;20028;-77
2023/06/26 06:58:20;;;;;;;12.60;5.43;;;;;;;;;;4936601;29;20406;-77
2023/06/26 07:00:46;;;;;;;9.43;5.40;;;;;;;;;;4935015;29;20102;-77
2023/06/26 07:03:12;;;;;;;9.98;5.13;;;;;;;;;;4942694;29;20039;-75
2023/06/26 07:05:38;;;;;;;8.20;5.63;;;;;;;;;;4955466;28;20058;-76
2023/06/26 07:08:04;;;;;;;9.10;5.40;;;;;;;;;;4954302;29;20042;-76
2023/06/26 07:10:29;;;;;;;11.07;5.80;;;;;;;;;;4954963;28;20270;-76
2023/06/26 07:12:55;;;;;;;7.53;4.85;;;;;;;;;;4954096;29;20507;-76
2023/06/26 07:15:21;;;;;;;9.77;5.53;;;;;;;;;;4953922;29;20023;-75
2023/06/26 07:17:47;;;;;;;6.78;4.85;;;;;;;;;;4955327;29;20042;-76
2023/06/26 07:20:15;;;;;;;10.30;4.97;;;;;;;;;;4953330;28;20118;-77
2023/06/26 07:22:41;;;;;;;9.05;5.50;;;;;;;;;;4934594;29;20032;-75
2023/06/26 07:25:10;;;;;;;10.38;5.28;;;;;;;;;;4934762;29;20028;-78
2023/06/26 07:27:36;;;;;;;;;;;;;;;;;;4919398;29;20043;-76
2023/06/26 07:30:02;;;;;;;9.10;5.05;;;;;;;;;;4934561;29;20005;-77
2023/06/26 07:32:28;;;;;;;9.75;5.07;;;;;;;;;;4934798;29;20043;-77
2023/06/26 07:34:53;;;;;;;10.73;5.35;;;;;;;;;;4918898;29;20028;-77
2023/06/26 07:37:19;;;;;;;6.53;5.00;;;;;;;;;;4935522;29;20024;-77
2023/06/26 07:39:45;;;;;;;9.40;5.60;;;;;;;;;;4953744;29;20071;-78
2023/06/26 07:42:11;;;;;;;9.77;5.15;;;;;;;;;;4937507;29;20039;-75
2023/06/26 07:44:36;;;;;;;9.73;5.45;;;;;;;;;;4953819;29;20122;-76
2023/06/26 07:47:02;;;;;;;10.88;5.68;;;;;;;;;;4938490;29;20043;-76
2023/06/26 07:49:28;;;;;;;8.90;4.95;;;;;;;;;;4954427;29;20154;-76
2023/06/26 07:51:54;;;;;;;10.45;5.15;;;;;;;;;;4922254;29;20505;-76
2023/06/26 07:54:20;;;;;;;11.32;5.78;;;;;;;;;;4920709;29;20110;-76
2023/06/26 07:57:12;;;;;;;8.95;4.85;;;;;;;;;;4937601;29;20039;-76
2023/06/26 07:59:38;;;;;;;9.50;5.20;;;;;;;;;;4951761;29;20142;-76
2023/06/26 08:02:04;;;;;;;8.43;4.47;;;;;;;;;;4953274;29;20099;-76
2023/06/26 08:04:31;;;;;;;8.18;4.75;;;;;;;;;;4954419;29;20054;-75
2023/06/26 08:06:58;;;;;;;13.87;5.43;;;;;;;;;;4953369;29;20087;-75
2023/06/26 08:09:25;;;;;;;8.98;5.57;;;;;;;;;;4937199;29;20281;-77
2023/06/26 08:11:51;;;;;;;7.25;4.82;;;;;;;;;;4917050;29;20106;-76
2023/06/26 08:14:17;;;;;;;9.65;5.55;;;;;;;;;;4933929;29;20082;-78
2023/06/26 08:16:46;;;;;;;7.25;5.32;;;;;;;;;;4933770;29;20043;-78
2023/06/26 08:19:12;;;;;;;10.15;5.65;;;;;;;;;;4918210;29;20023;-78
2023/06/26 08:21:39;;;;;;;8.70;4.95;;;;;;;;;;4933305;29;20081;-78
2023/06/26 08:24:05;;;;;;;7.60;5.32;;;;;;;;;;4917363;29;20420;-81
2023/06/26 08:26:30;;;;;;;10.57;5.45;;;;;;;;;;4917609;29;20131;-82
2023/06/26 08:28:56;;;;;;;10.48;5.50;;;;;;;;;;4936875;29;20039;-80
2023/06/26 08:31:22;;;;;;;9.77;4.97;;;;;;;;;;4952591;29;20035;-79
2023/06/26 08:33:48;;;;;;;10.85;5.20;;;;;;;;;;4952719;29;20019;-81
2023/06/26 08:36:14;;;;;;;11.80;5.65;;;;;;;;;;4921040;29;20050;-81
2023/06/26 08:38:40;;;;;;;10.25;5.85;;;;;;;;;;4936975;29;20078;-80
2023/06/26 08:41:06;;;;;;;9.35;5.80;;;;;;;;;;4920661;29;20039;-81
2023/06/26 08:43:33;;;;;;;10.23;5.18;;;;;;;;;;4916855;29;20035;-81
2023/06/26 08:45:59;;;;;;;12.70;5.82;;;;;;;;;;4932679;29;20040;-81
2023/06/26 08:48:25;;;;;;;7.85;4.85;;;;;;;;;;4933153;29;20106;-81
2023/06/26 08:50:53;;;;;;;8.25;5.40;;;;;;;;;;4933025;29;20484;-81
2023/06/26 08:53:37;;;;;;;10.32;5.55;;;;;;;;;;4934245;29;20162;-81
2023/06/26 08:56:03;;;;;;;8.73;5.30;;;;;;;;;;4934338;29;20028;-81
2023/06/26 08:58:28;;;;;;;9.13;5.38;;;;;;;;;;4917483;29;20040;-81
2023/06/26 09:00:55;;;;;;;9.27;5.22;;;;;;;;;;4940454;29;20034;-81
2023/06/26 09:03:21;;;;;;;10.43;5.78;;;;;;;;;;4935912;29;20039;-81
2023/06/26 09:05:47;;;;;;;9.07;5.28;;;;;;;;;;4936704;29;20058;-81
2023/06/26 09:08:13;;;;;;;9.95;5.85;;;;;;;;;;4952234;29;20125;-81
2023/06/26 09:10:39;;;;;;;10.05;5.57;;;;;;;;;;4920204;29;20166;-78
2023/06/26 09:13:05;;;;;;;7.78;5.25;;;;;;;;;;4953290;28;20059;-77
2023/06/26 09:15:43;;;;;;;7.45;4.88;;;;;;;;;;4952037;29;20039;-77
2023/06/26 09:18:09;;;;;;;8.73;5.15;;;;;;;;;;4936607;29;20042;-81
2023/06/26 09:20:35;;;;;;;9.32;5.15;;;;;;;;;;4920834;29;20031;-83
2023/06/26 09:23:02;;;;;;;9.23;5.22;;;;;;;;;;4920436;29;20039;-79
2023/06/26 09:25:28;;;;;;;21.27;14.70;;;;;;;;;;4955543;29;20035;-84
2023/06/26 09:27:54;;;;;;;8.82;5.85;;;;;;;;;;4937329;29;20114;-85
2023/06/26 09:30:23;;;;;;;8.70;5.47;;;;;;;;;;4921033;29;20122;-83
2023/06/26 09:32:50;;;;;;;12.50;5.60;;;;;;;;;;4936424;29;20024;-83
2023/06/26 09:35:16;;;;;;;8.73;5.28;;;;;;;;;;4927766;29;20040;-83
2023/06/26 09:37:48;;;;;;;8.93;4.78;;;;;;;;;;4917416;29;20086;-84
2023/06/26 09:40:14;;;;;;;7.97;5.35;;;;;;;;;;4901626;29;20031;-85
2023/06/26 09:42:41;;;;;;;8.82;5.30;;;;;;;;;;4902248;29;20035;-87
2023/06/26 09:45:17;;;;;;;10.73;5.70;;;;;;;;;;4937869;29;20044;-87
2023/06/26 09:47:44;;;;;;;9.43;5.07;;;;;;;;;;4904750;29;20403;-84
2023/06/26 09:50:23;;;;;;;15.15;5.13;;;;;;;;;;4920874;29;20174;-83
2023/06/26 09:52:50;;;;;;;8.90;5.20;;;;;;;;;;4921836;29;20073;-84
2023/06/26 09:55:19;;;;;;;9.95;5.20;;;;;;;;;;4953111;29;20034;-83
2023/06/26 09:57:46;;;;;;;9.57;4.90;;;;;;;;;;4956442;28;20034;-83
2023/06/26 10:00:13;;;;;;;8.57;4.65;;;;;;;;;;4936588;29;20463;-84
2023/06/26 10:02:39;;;;;;;9.20;5.20;;;;;;;;;;4932320;29;20499;-87
2023/06/26 10:05:05;;;;;;;7.72;4.60;;;;;;;;;;4923234;29;20028;-86
2023/06/26 10:07:31;;;;;;;7.07;4.63;;;;;;;;;;4947124;29;20059;-87
2023/06/26 10:10:00;;;;;;;9.55;4.43;;;;;;;;;;4927829;29;20038;-86
2023/06/26 10:12:30;;;;;;;9.07;4.80;;;;;;;;;;4925219;29;20030;-88
2023/06/26 10:15:00;;;;;;;13.00;4.90;;;;;;;;;;4920295;29;20074;-88
2023/06/26 10:17:31;;;;;;;9.15;5.03;;;;;;;;;;4927910;29;20031;-83
2023/06/26 10:20:02;;;;;;;6.22;4.38;;;;;;;;;;4953465;29;20028;-86
2023/06/26 10:22:29;;;;;;;6.68;3.92;;;;;;;;;;4929411;29;20054;-87
2023/06/26 10:24:58;;;;;;;8.40;4.35;;;;;;;;;;4935824;29;20035;-86
2023/06/26 10:27:32;;;;;;;7.18;4.35;;;;;;;;;;4938398;28;20030;-86
2023/06/26 10:30:00;;;;;;;7.07;4.22;;;;;;;;;;4926172;29;20034;-86
2023/06/26 10:32:29;;;;;;;7.57;4.30;;;;;;;;;;4909338;29;20079;-86
2023/06/26 10:34:58;;;;;;;9.02;4.95;;;;;;;;;;4943355;29;20036;-86
2023/06/26 10:37:44;;;;;;;7.82;4.53;;;;;;;;;;4935680;29;20035;-83
2023/06/26 10:40:22;;;;;;;8.60;4.68;;;;;;;;;;4954018;29;20065;-84
2023/06/26 10:42:49;;;;;;;5.20;3.83;;;;;;;;;;4942501;29;20039;-83
2023/06/26 10:45:19;;;;;;;6.28;4.50;;;;;;;;;;4929389;29;20039;-84
2023/06/26 10:47:51;;;;;;;7.80;4.32;;;;;;;;;;4928251;29;20123;-83
2023/06/26 10:50:35;;;;;;;7.28;4.57;;;;;;;;;;4922002;29;20487;-83
2023/06/26 10:53:24;;;;;;;8.20;4.57;;;;;;;;;;4921563;29;20028;-84
2023/06/26 10:56:01;;;;;;;7.28;4.35;;;;;;;;;;4906318;29;20563;-85
2023/06/26 10:58:29;;;;;;;7.03;4.47;;;;;;;;;;4921582;29;20042;-84
2023/06/26 11:00:55;;;;;;;;;;;;;;;;;;4906323;29;20040;-83
2023/06/26 11:03:24;;;;;;;7.72;4.15;;;;;;;;;;4906436;29;20393;-85
2023/06/26 11:06:08;;;;;;;6.75;4.38;;;;;;;;;;4915267;29;20035;-82
2023/06/26 11:08:47;;;;;;;6.50;4.32;;;;;;;;;;4931654;29;20046;-81
2023/06/26 11:11:22;;;;;;;7.55;4.57;;;;;;;;;;4931600;29;20035;-82
2023/06/26 11:13:51;;;;;;;8.70;4.47;;;;;;;;;;4939579;29;20034;-81
2023/06/26 11:16:18;;;;;;;6.88;4.30;;;;;;;;;;4961125;29;20062;-82
2023/06/26 11:18:48;;;;;;;6.32;4.22;;;;;;;;;;4929318;29;20039;-81
2023/06/26 11:21:14;;;;;;;7.95;4.25;;;;;;;;;;4912346;29;20043;-81
2023/06/26 11:23:49;;;;;;;5.95;4.30;;;;;;;;;;4940165;29;20050;-82
2023/06/26 11:26:22;;;;;;;5.57;3.83;;;;;;;;;;4925043;29;20028;-82
2023/06/26 11:28:54;;;;;;;6.88;4.47;;;;;;;;;;4907837;29;20034;-81
2023/06/26 11:31:34;;;;;;;7.00;4.00;;;;;;;;;;4907017;29;20487;-83
2023/06/26 11:34:11;;;;;;;7.55;4.10;;;;;;;;;;4920998;29;20034;-84
2023/06/26 11:36:42;;;;;;;9.35;4.50;;;;;;;;;;4923279;29;20066;-84
2023/06/26 11:39:08;;;;;;;7.88;4.07;;;;;;;;;;4935466;29;20054;-83
2023/06/26 11:41:55;;;;;;;170.95;133.13;;;;;;;;;;4905903;29;20059;-86
2023/06/26 11:44:32;;;;;;;8.90;5.90;;;;;;;;;;4921614;29;20035;-86
2023/06/26 11:47:05;;;;;;;19.58;14.57;;;;;;;;;;4959084;23;20473;-80
2023/06/26 11:49:31;;;;;;;13.63;9.23;;;;;;;;;;4954072;29;20058;-78
2023/06/26 11:51:57;;;;;;;7.32;4.22;;;;;;;;;;4953821;29;20027;-85
2023/06/26 11:54:23;;;;;;;6.78;4.57;;;;;;;;;;4954761;29;20672;-87
2023/06/26 11:56:56;;;;;;;7.45;4.15;;;;;;;;;;4958117;28;20030;-84
2023/06/26 11:59:22;;;;;;;8.55;4.80;;;;;;;;;;4955206;29;20046;-88
2023/06/26 12:01:50;;;;;;;6.15;4.15;;;;;;;;;;4957471;28;20035;-84
2023/06/26 12:04:17;;;;;;;5.83;3.77;;;;;;;;;;4969973;29;20031;-82
2023/06/26 12:06:44;;;;;;;6.07;4.15;;;;;;;;;;4971436;29;20035;-80
2023/06/26 12:09:11;;;;;;;7.43;4.13;;;;;;;;;;4955927;29;20066;-81
2023/06/26 12:11:37;;;;;;;6.63;4.00;;;;;;;;;;4970220;28;20099;-89
2023/06/26 12:14:04;;;;;;;7.20;4.22;;;;;;;;;;4955944;28;20023;-91
2023/06/26 12:16:30;;;;;;;7.45;4.13;;;;;;;;;;4956636;29;20027;-91
2023/06/26 12:19:00;;;;;;;9.85;4.20;;;;;;;;;;4960039;28;20625;-92
2023/06/26 12:21:37;;;;;;;7.63;4.00;;;;;;;;;;4961840;28;20039;-91
2023/06/26 12:24:04;;;;;;;6.70;3.80;;;;;;;;;;4958913;28;20058;-89
2023/06/26 12:26:30;;;;;;;7.32;4.18;;;;;;;;;;4973601;28;20474;-89
2023/06/26 12:29:03;;;;;;;6.57;3.97;;;;;;;;;;4938599;29;20069;-87
2023/06/26 12:31:28;;;;;;;12.25;4.15;;;;;;;;;;4973776;28;20027;-88
2023/06/26 12:33:54;;;;;;;10.63;4.25;;;;;;;;;;4955415;29;20186;-88
2023/06/26 12:36:20;;;;;;;8.35;4.43;;;;;;;;;;4966867;28;20023;-84
2023/06/26 12:38:46;;;;;;;6.85;4.40;;;;;;;;;;4973325;28;20057;-85
2023/06/26 12:41:13;;;;;;;6.20;4.18;;;;;;;;;;4955084;28;20031;-86
2023/06/26 12:43:39;;;;;;;5.47;4.10;;;;;;;;;;4956193;28;20058;-84
2023/06/26 12:46:05;;;;;;;7.22;4.28;;;;;;;;;;4988948;28;20049;-87
2023/06/26 12:48:43;;;;;;;7.60;3.80;;;;;;;;;;4956365;28;20046;-86
2023/06/26 12:51:18;;;;;;;5.85;4.00;;;;;;;;;;4955652;28;20082;-85
2023/06/26 12:53:43;;;;;;;8.75;3.97;;;;;;;;;;4973678;28;20416;-85
2023/06/26 12:56:09;;;;;;;6.47;4.07;;;;;;;;;;4988667;28;20061;-86
2023/06/26 12:58:35;;;;;;;6.07;3.67;;;;;;;;;;4972244;28;20380;-85
2023/06/26 13:01:03;;;;;;;5.85;3.90;;;;;;;;;;4989101;28;20107;-85
2023/06/26 13:03:28;;;;;;;8.30;4.07;;;;;;;;;;4969226;28;20106;-85
2023/06/26 13:05:54;;;;;;;7.28;4.00;;;;;;;;;;4937603;29;20501;-85
2023/06/26 13:08:19;;;;;;;135.52;112.68;;;;;;;;;;4954187;29;20114;-88
2023/06/26 13:10:45;;;;;;;19.90;13.45;;;;;;;;;;4937087;29;20101;-88
2023/06/26 13:13:11;;;;;;;9.30;6.78;;;;;;;;;;4957879;28;20051;-88
2023/06/26 13:15:39;;;;;;;10.13;6.45;;;;;;;;;;4939586;28;20031;-87
2023/06/26 13:18:05;;;;;;;11.15;7.88;;;;;;;;;;4941631;28;20104;-88
2023/06/26 13:20:31;;;;;;;7.68;6.32;;;;;;;;;;4975204;28;20046;-87
2023/06/26 13:22:57;;;;;;;11.25;5.10;;;;;;;;;;4973470;28;20041;-87
2023/06/26 13:25:22;;;;;;;6.43;4.45;;;;;;;;;;4956496;28;20038;-87
2023/06/26 13:27:49;;;;;;;8.40;4.78;;;;;;;;;;4972035;28;20042;-87
2023/06/26 13:30:15;;;;;;;5.80;4.28;;;;;;;;;;4972179;28;20032;-90
2023/06/26 13:32:40;;;;;;;5.68;3.75;;;;;;;;;;4960054;28;20050;-90
2023/06/26 13:35:07;;;;;;;5.05;3.88;;;;;;;;;;4959677;28;20495;-87
2023/06/26 13:37:33;;;;;;;5.35;3.83;;;;;;;;;;4963287;28;20133;-85
2023/06/26 13:40:01;;;;;;;6.03;4.10;;;;;;;;;;4982519;28;20592;-87
2023/06/26 13:42:27;;;;;;;7.82;3.60;;;;;;;;;;4983375;28;20035;-86
2023/06/26 13:44:52;;;;;;;6.63;4.35;;;;;;;;;;4950638;28;20050;-88
2023/06/26 13:47:17;;;;;;;8.95;4.22;;;;;;;;;;4943594;28;20134;-85
2023/06/26 13:49:43;;;;;;;9.35;4.38;;;;;;;;;;4974960;28;20053;-90
2023/06/26 13:52:08;;;;;;;10.43;4.35;;;;;;;;;;4960078;28;20065;-87
2023/06/26 13:54:36;;;;;;;8.63;4.07;;;;;;;;;;4976289;28;20118;-89
2023/06/26 13:57:02;;;;;;;11.63;4.40;;;;;;;;;;4978510;28;20070;-88
2023/06/26 13:59:28;;;;;;;7.13;4.32;;;;;;;;;;4974942;28;20053;-88
2023/06/26 14:01:53;;;;;;;8.40;4.72;;;;;;;;;;4977939;28;20035;-90
2023/06/26 14:04:19;;;;;;;8.13;4.47;;;;;;;;;;4981136;28;20406;-89
2023/06/26 14:06:45;;;;;;;7.57;4.90;;;;;;;;;;4964798;28;20051;-89
2023/06/26 14:09:11;;;;;;;6.90;4.45;;;;;;;;;;4965285;28;20474;-87
2023/06/26 14:11:36;;;;;;;28.67;6.55;;;;;;;;;;4960466;28;20061;-90
2023/06/26 14:14:02;;;;;;;18.98;6.68;;;;;;;;;;4977677;28;20121;-89
2023/06/26 14:16:29;;;;;;;16.85;6.20;;;;;;;;;;4960335;28;20041;-91
2023/06/26 14:18:55;;;;;;;15.10;6.15;;;;;;;;;;4961544;28;20034;-89
2023/06/26 14:21:21;;;;;;;21.73;6.40;;;;;;;;;;4975775;28;20030;-90
2023/06/26 14:23:46;;;;;;;15.10;5.55;;;;;;;;;;4977342;28;20450;-90
2023/06/26 14:26:12;;;;;;;12.90;5.93;;;;;;;;;;4961825;28;20042;-90
2023/06/26 14:28:38;;;;;;;14.70;6.00;;;;;;;;;;4963864;28;20042;-90
2023/06/26 14:31:03;;;;;;;11.50;4.95;;;;;;;;;;4971558;28;20032;-86
2023/06/26 14:33:29;;;;;;;18.05;11.68;;;;;;;;;;4964117;29;20027;-92
2023/06/26 14:35:54;;;;;;;14.02;6.90;;;;;;;;;;4979662;28;20031;-90
2023/06/26 14:38:20;;;;;;;17.42;6.95;;;;;;;;;;4975833;28;20036;-83
2023/06/26 14:40:46;;;;;;;15.48;6.72;;;;;;;;;;4970309;28;20051;-83
2023/06/26 14:43:12;;;;;;;12.95;6.45;;;;;;;;;;4968142;28;20174;-84